sensor_id;sensor_type;location;lat;lon;timestamp;P1;durP1;ratioP1;P2;durP2;ratioP2
36745;SDS011;22715;52.182;21.206;2023-12-20T00:01:35;12.43;;;9.65;;
36745;SDS011;22715;52.182;21.206;2023-12-20T00:04:00;13.02;;;8.82;;
36745;SDS011;22715;52.182;21.206;2023-12-20T00:06:26;18.75;;;10.88;;
36745;SDS011;22715;52.182;21.206;2023-12-20T00:08:51;14.25;;;10.55;;
36745;SDS011;22715;52.182;21.206;2023-12-20T00:11:16;16.75;;;9.75;;
36745;SDS011;22715;52.182;21.206;2023-12-20T00:13:41;13.13;;;9.63;;
36745;SDS011;22715;52.182;21.206;2023-12-20T00:16:07;12.02;;;9.05;;
36745;SDS011;22715;52.182;21.206;2023-12-20T00:18:32;12.23;;;9.15;;
36745;SDS011;22715;52.182;21.206;2023-12-20T00:20:57;14.98;;;8.70;;
36745;SDS011;22715;52.182;21.206;2023-12-20T00:23:23;14.73;;;9.52;;
36745;SDS011;22715;52.182;21.206;2023-12-20T00:25:48;12.93;;;8.77;;
36745;SDS011;22715;52.182;21.206;2023-12-20T00:28:14;13.68;;;8.18;;
36745;SDS011;22715;52.182;21.206;2023-12-20T00:30:39;12.57;;;8.88;;
36745;SDS011;22715;52.182;21.206;2023-12-20T00:33:04;12.35;;;9.05;;
36745;SDS011;22715;52.182;21.206;2023-12-20T00:35:29;14.75;;;8.55;;
36745;SDS011;22715;52.182;21.206;2023-12-20T00:37:55;9.82;;;7.80;;
36745;SDS011;22715;52.182;21.206;2023-12-20T00:40:20;14.00;;;8.20;;
36745;SDS011;22715;52.182;21.206;2023-12-20T00:42:45;14.55;;;9.00;;
36745;SDS011;22715;52.182;21.206;2023-12-20T00:45:11;10.85;;;7.85;;
36745;SDS011;22715;52.182;21.206;2023-12-20T00:47:37;12.05;;;7.35;;
36745;SDS011;22715;52.182;21.206;2023-12-20T00:50:02;9.40;;;7.85;;
36745;SDS011;22715;52.182;21.206;2023-12-20T00:52:28;13.48;;;8.65;;
36745;SDS011;22715;52.182;21.206;2023-12-20T00:54:53;11.38;;;7.72;;
36745;SDS011;22715;52.182;21.206;2023-12-20T00:57:18;8.32;;;5.68;;
36745;SDS011;22715;52.182;21.206;2023-12-20T00:59:44;11.13;;;7.90;;
36745;SDS011;22715;52.182;21.206;2023-12-20T01:02:09;11.45;;;8.50;;
36745;SDS011;22715;52.182;21.206;2023-12-20T01:04:35;11.13;;;6.97;;
36745;SDS011;22715;52.182;21.206;2023-12-20T01:07:00;9.95;;;7.45;;
36745;SDS011;22715;52.182;21.206;2023-12-20T01:09:25;11.40;;;7.70;;
36745;SDS011;22715;52.182;21.206;2023-12-20T01:11:53;7.95;;;6.32;;
36745;SDS011;22715;52.182;21.206;2023-12-20T01:14:19;10.50;;;6.45;;
36745;SDS011;22715;52.182;21.206;2023-12-20T01:16:44;9.50;;;6.32;;
36745;SDS011;22715;52.182;21.206;2023-12-20T01:19:09;8.38;;;5.55;;
36745;SDS011;22715;52.182;21.206;2023-12-20T01:21:34;8.77;;;6.25;;
36745;SDS011;22715;52.182;21.206;2023-12-20T01:24:00;6.72;;;5.60;;
36745;SDS011;22715;52.182;21.206;2023-12-20T01:26:25;9.02;;;6.10;;
36745;SDS011;22715;52.182;21.206;2023-12-20T01:28:50;13.10;;;6.43;;
36745;SDS011;22715;52.182;21.206;2023-12-20T01:31:16;8.90;;;6.82;;
36745;SDS011;22715;52.182;21.206;2023-12-20T01:33:41;8.77;;;6.75;;
36745;SDS011;22715;52.182;21.206;2023-12-20T01:36:06;9.23;;;6.05;;
36745;SDS011;22715;52.182;21.206;2023-12-20T01:38:32;8.30;;;6.85;;
36745;SDS011;22715;52.182;21.206;2023-12-20T01:40:57;9.65;;;6.13;;
36745;SDS011;22715;52.182;21.206;2023-12-20T01:43:22;9.75;;;6.95;;
36745;SDS011;22715;52.182;21.206;2023-12-20T01:45:48;8.00;;;6.25;;
36745;SDS011;22715;52.182;21.206;2023-12-20T01:48:13;9.70;;;5.35;;
36745;SDS011;22715;52.182;21.206;2023-12-20T01:50:39;10.23;;;6.28;;
36745;SDS011;22715;52.182;21.206;2023-12-20T01:53:05;8.80;;;6.00;;
36745;SDS011;22715;52.182;21.206;2023-12-20T01:55:33;11.65;;;7.50;;
36745;SDS011;22715;52.182;21.206;2023-12-20T01:57:59;8.02;;;6.28;;
36745;SDS011;22715;52.182;21.206;2023-12-20T02:00:25;10.52;;;6.53;;
36745;SDS011;22715;52.182;21.206;2023-12-20T02:02:52;8.10;;;5.93;;
36745;SDS011;22715;52.182;21.206;2023-12-20T02:05:18;10.45;;;7.10;;
36745;SDS011;22715;52.182;21.206;2023-12-20T02:07:43;8.40;;;5.70;;
36745;SDS011;22715;52.182;21.206;2023-12-20T02:10:12;7.32;;;5.90;;
36745;SDS011;22715;52.182;21.206;2023-12-20T02:12:37;7.05;;;5.45;;
36745;SDS011;22715;52.182;21.206;2023-12-20T02:15:03;6.30;;;5.13;;
36745;SDS011;22715;52.182;21.206;2023-12-20T02:17:29;8.13;;;6.00;;
36745;SDS011;22715;52.182;21.206;2023-12-20T02:19:54;10.40;;;5.88;;
36745;SDS011;22715;52.182;21.206;2023-12-20T02:22:20;8.55;;;6.47;;
36745;SDS011;22715;52.182;21.206;2023-12-20T02:24:45;8.32;;;6.00;;
36745;SDS011;22715;52.182;21.206;2023-12-20T02:27:10;10.57;;;6.40;;
36745;SDS011;22715;52.182;21.206;2023-12-20T02:29:36;6.40;;;5.75;;
36745;SDS011;22715;52.182;21.206;2023-12-20T02:32:01;8.63;;;5.78;;
36745;SDS011;22715;52.182;21.206;2023-12-20T02:34:27;7.35;;;5.00;;
36745;SDS011;22715;52.182;21.206;2023-12-20T02:36:53;6.30;;;5.00;;
36745;SDS011;22715;52.182;21.206;2023-12-20T02:39:18;9.05;;;5.72;;
36745;SDS011;22715;52.182;21.206;2023-12-20T02:41:44;7.05;;;5.38;;
36745;SDS011;22715;52.182;21.206;2023-12-20T02:44:10;6.20;;;4.93;;
36745;SDS011;22715;52.182;21.206;2023-12-20T02:46:35;6.60;;;4.75;;
36745;SDS011;22715;52.182;21.206;2023-12-20T02:49:01;5.07;;;4.03;;
36745;SDS011;22715;52.182;21.206;2023-12-20T02:51:26;8.70;;;5.10;;
36745;SDS011;22715;52.182;21.206;2023-12-20T02:53:51;6.32;;;5.03;;
36745;SDS011;22715;52.182;21.206;2023-12-20T02:56:16;8.07;;;4.10;;
36745;SDS011;22715;52.182;21.206;2023-12-20T02:58:42;6.85;;;4.28;;
36745;SDS011;22715;52.182;21.206;2023-12-20T03:01:07;7.13;;;4.90;;
36745;SDS011;22715;52.182;21.206;2023-12-20T03:03:32;8.63;;;4.75;;
36745;SDS011;22715;52.182;21.206;2023-12-20T03:05:57;4.97;;;3.83;;
36745;SDS011;22715;52.182;21.206;2023-12-20T03:08:23;6.75;;;4.68;;
36745;SDS011;22715;52.182;21.206;2023-12-20T03:10:48;5.55;;;4.07;;
36745;SDS011;22715;52.182;21.206;2023-12-20T03:13:13;5.03;;;4.03;;
36745;SDS011;22715;52.182;21.206;2023-12-20T03:15:39;4.22;;;3.53;;
36745;SDS011;22715;52.182;21.206;2023-12-20T03:18:04;4.47;;;3.50;;
36745;SDS011;22715;52.182;21.206;2023-12-20T03:20:29;5.40;;;3.63;;
36745;SDS011;22715;52.182;21.206;2023-12-20T03:22:59;5.57;;;3.85;;
36745;SDS011;22715;52.182;21.206;2023-12-20T03:25:24;6.15;;;3.95;;
36745;SDS011;22715;52.182;21.206;2023-12-20T03:27:49;4.00;;;3.58;;
36745;SDS011;22715;52.182;21.206;2023-12-20T03:30:14;4.55;;;3.63;;
36745;SDS011;22715;52.182;21.206;2023-12-20T03:32:40;5.50;;;3.67;;
36745;SDS011;22715;52.182;21.206;2023-12-20T03:35:05;7.05;;;4.22;;
36745;SDS011;22715;52.182;21.206;2023-12-20T03:37:31;6.75;;;3.75;;
36745;SDS011;22715;52.182;21.206;2023-12-20T03:39:56;6.72;;;5.20;;
36745;SDS011;22715;52.182;21.206;2023-12-20T03:42:21;4.45;;;3.38;;
36745;SDS011;22715;52.182;21.206;2023-12-20T03:44:46;6.45;;;4.38;;
36745;SDS011;22715;52.182;21.206;2023-12-20T03:47:12;6.03;;;3.60;;
36745;SDS011;22715;52.182;21.206;2023-12-20T03:49:37;5.03;;;3.13;;
36745;SDS011;22715;52.182;21.206;2023-12-20T03:52:03;5.20;;;3.22;;
36745;SDS011;22715;52.182;21.206;2023-12-20T03:54:29;4.10;;;3.17;;
36745;SDS011;22715;52.182;21.206;2023-12-20T03:56:54;6.78;;;4.15;;
36745;SDS011;22715;52.182;21.206;2023-12-20T03:59:19;3.42;;;2.78;;
36745;SDS011;22715;52.182;21.206;2023-12-20T04:01:44;5.95;;;3.92;;
36745;SDS011;22715;52.182;21.206;2023-12-20T04:04:10;5.25;;;2.88;;
36745;SDS011;22715;52.182;21.206;2023-12-20T04:06:35;5.70;;;3.17;;
36745;SDS011;22715;52.182;21.206;2023-12-20T04:09:01;5.03;;;3.17;;
36745;SDS011;22715;52.182;21.206;2023-12-20T04:11:26;5.40;;;3.78;;
36745;SDS011;22715;52.182;21.206;2023-12-20T04:13:51;4.43;;;3.53;;
36745;SDS011;22715;52.182;21.206;2023-12-20T04:16:16;4.68;;;2.90;;
36745;SDS011;22715;52.182;21.206;2023-12-20T04:18:42;3.58;;;2.90;;
36745;SDS011;22715;52.182;21.206;2023-12-20T04:21:07;5.90;;;3.17;;
36745;SDS011;22715;52.182;21.206;2023-12-20T04:23:32;4.80;;;2.50;;
36745;SDS011;22715;52.182;21.206;2023-12-20T04:25:58;4.47;;;2.97;;
36745;SDS011;22715;52.182;21.206;2023-12-20T04:28:23;3.20;;;2.75;;
36745;SDS011;22715;52.182;21.206;2023-12-20T04:30:48;5.03;;;3.10;;
36745;SDS011;22715;52.182;21.206;2023-12-20T04:33:14;2.85;;;2.58;;
36745;SDS011;22715;52.182;21.206;2023-12-20T04:35:39;4.63;;;3.97;;
36745;SDS011;22715;52.182;21.206;2023-12-20T04:38:06;2.78;;;2.00;;
36745;SDS011;22715;52.182;21.206;2023-12-20T04:40:31;4.22;;;2.80;;
36745;SDS011;22715;52.182;21.206;2023-12-20T04:42:56;4.10;;;2.95;;
36745;SDS011;22715;52.182;21.206;2023-12-20T04:45:22;5.60;;;3.22;;
36745;SDS011;22715;52.182;21.206;2023-12-20T04:47:48;5.63;;;3.97;;
36745;SDS011;22715;52.182;21.206;2023-12-20T04:50:14;5.32;;;3.45;;
36745;SDS011;22715;52.182;21.206;2023-12-20T04:52:39;3.95;;;3.47;;
36745;SDS011;22715;52.182;21.206;2023-12-20T04:55:05;3.50;;;3.00;;
36745;SDS011;22715;52.182;21.206;2023-12-20T04:57:30;4.00;;;3.35;;
36745;SDS011;22715;52.182;21.206;2023-12-20T04:59:55;5.65;;;4.18;;
36745;SDS011;22715;52.182;21.206;2023-12-20T05:02:21;3.67;;;3.05;;
36745;SDS011;22715;52.182;21.206;2023-12-20T05:04:46;4.95;;;3.70;;
36745;SDS011;22715;52.182;21.206;2023-12-20T05:07:11;4.20;;;3.17;;
36745;SDS011;22715;52.182;21.206;2023-12-20T05:09:37;7.68;;;3.97;;
36745;SDS011;22715;52.182;21.206;2023-12-20T05:12:02;5.32;;;3.72;;
36745;SDS011;22715;52.182;21.206;2023-12-20T05:14:27;7.30;;;4.53;;
36745;SDS011;22715;52.182;21.206;2023-12-20T05:16:53;7.38;;;4.32;;
36745;SDS011;22715;52.182;21.206;2023-12-20T05:19:18;5.43;;;3.88;;
36745;SDS011;22715;52.182;21.206;2023-12-20T05:21:43;5.38;;;4.28;;
36745;SDS011;22715;52.182;21.206;2023-12-20T05:24:08;7.10;;;4.68;;
36745;SDS011;22715;52.182;21.206;2023-12-20T05:26:34;6.63;;;5.20;;
36745;SDS011;22715;52.182;21.206;2023-12-20T05:28:59;6.10;;;4.35;;
36745;SDS011;22715;52.182;21.206;2023-12-20T05:31:24;6.20;;;4.13;;
36745;SDS011;22715;52.182;21.206;2023-12-20T05:33:50;8.05;;;4.43;;
36745;SDS011;22715;52.182;21.206;2023-12-20T05:36:15;5.95;;;4.05;;
36745;SDS011;22715;52.182;21.206;2023-12-20T05:38:40;6.63;;;4.30;;
36745;SDS011;22715;52.182;21.206;2023-12-20T05:41:06;5.43;;;4.68;;
36745;SDS011;22715;52.182;21.206;2023-12-20T05:43:31;5.10;;;4.10;;
36745;SDS011;22715;52.182;21.206;2023-12-20T05:45:56;6.78;;;4.88;;
36745;SDS011;22715;52.182;21.206;2023-12-20T05:48:23;6.53;;;5.07;;
36745;SDS011;22715;52.182;21.206;2023-12-20T05:50:48;8.48;;;4.85;;
36745;SDS011;22715;52.182;21.206;2023-12-20T05:53:14;8.02;;;5.22;;
36745;SDS011;22715;52.182;21.206;2023-12-20T05:55:39;5.28;;;4.55;;
36745;SDS011;22715;52.182;21.206;2023-12-20T05:58:05;7.25;;;5.70;;
36745;SDS011;22715;52.182;21.206;2023-12-20T06:00:30;10.60;;;5.70;;
36745;SDS011;22715;52.182;21.206;2023-12-20T06:02:55;5.82;;;5.22;;
36745;SDS011;22715;52.182;21.206;2023-12-20T06:05:20;5.95;;;4.55;;
36745;SDS011;22715;52.182;21.206;2023-12-20T06:07:46;7.93;;;5.78;;
36745;SDS011;22715;52.182;21.206;2023-12-20T06:10:13;6.45;;;4.53;;
36745;SDS011;22715;52.182;21.206;2023-12-20T06:12:39;5.97;;;4.50;;
36745;SDS011;22715;52.182;21.206;2023-12-20T06:15:04;7.47;;;5.07;;
36745;SDS011;22715;52.182;21.206;2023-12-20T06:17:30;8.68;;;6.88;;
36745;SDS011;22715;52.182;21.206;2023-12-20T06:19:56;7.45;;;5.35;;
36745;SDS011;22715;52.182;21.206;2023-12-20T06:22:21;8.05;;;5.35;;
36745;SDS011;22715;52.182;21.206;2023-12-20T06:24:46;7.05;;;5.20;;
36745;SDS011;22715;52.182;21.206;2023-12-20T06:27:12;7.30;;;5.63;;
36745;SDS011;22715;52.182;21.206;2023-12-20T06:29:37;8.40;;;5.88;;
36745;SDS011;22715;52.182;21.206;2023-12-20T06:32:02;9.75;;;5.25;;
36745;SDS011;22715;52.182;21.206;2023-12-20T06:34:28;7.85;;;5.43;;
36745;SDS011;22715;52.182;21.206;2023-12-20T06:36:53;7.13;;;5.72;;
36745;SDS011;22715;52.182;21.206;2023-12-20T06:39:18;6.88;;;5.68;;
36745;SDS011;22715;52.182;21.206;2023-12-20T06:41:45;8.05;;;5.50;;
36745;SDS011;22715;52.182;21.206;2023-12-20T06:44:10;8.95;;;4.53;;
36745;SDS011;22715;52.182;21.206;2023-12-20T06:46:36;7.60;;;4.75;;
36745;SDS011;22715;52.182;21.206;2023-12-20T06:49:01;7.28;;;5.50;;
36745;SDS011;22715;52.182;21.206;2023-12-20T06:51:26;4.90;;;4.05;;
36745;SDS011;22715;52.182;21.206;2023-12-20T06:53:52;8.20;;;5.72;;
36745;SDS011;22715;52.182;21.206;2023-12-20T06:56:17;8.10;;;4.63;;
36745;SDS011;22715;52.182;21.206;2023-12-20T06:58:42;8.05;;;4.90;;
36745;SDS011;22715;52.182;21.206;2023-12-20T07:01:12;8.48;;;5.03;;
36745;SDS011;22715;52.182;21.206;2023-12-20T07:03:37;6.45;;;4.22;;
36745;SDS011;22715;52.182;21.206;2023-12-20T07:06:03;7.43;;;4.82;;
36745;SDS011;22715;52.182;21.206;2023-12-20T07:08:28;5.65;;;4.65;;
36745;SDS011;22715;52.182;21.206;2023-12-20T07:10:54;5.32;;;4.22;;
36745;SDS011;22715;52.182;21.206;2023-12-20T07:13:19;5.30;;;4.45;;
36745;SDS011;22715;52.182;21.206;2023-12-20T07:15:44;6.13;;;5.10;;
36745;SDS011;22715;52.182;21.206;2023-12-20T07:18:14;6.75;;;5.05;;
36745;SDS011;22715;52.182;21.206;2023-12-20T07:23:24;6.88;;;4.55;;
36745;SDS011;22715;52.182;21.206;2023-12-20T07:25:50;4.78;;;4.30;;
36745;SDS011;22715;52.182;21.206;2023-12-20T07:28:16;7.93;;;4.47;;
36745;SDS011;22715;52.182;21.206;2023-12-20T07:30:41;5.28;;;4.20;;
36745;SDS011;22715;52.182;21.206;2023-12-20T07:33:07;6.55;;;4.50;;
36745;SDS011;22715;52.182;21.206;2023-12-20T07:35:39;8.02;;;4.47;;
36745;SDS011;22715;52.182;21.206;2023-12-20T07:38:14;7.05;;;4.60;;
36745;SDS011;22715;52.182;21.206;2023-12-20T07:40:41;5.57;;;4.55;;
36745;SDS011;22715;52.182;21.206;2023-12-20T07:43:07;6.22;;;4.55;;
36745;SDS011;22715;52.182;21.206;2023-12-20T07:45:32;5.95;;;4.65;;
36745;SDS011;22715;52.182;21.206;2023-12-20T07:47:57;5.45;;;4.80;;
36745;SDS011;22715;52.182;21.206;2023-12-20T07:50:23;6.60;;;5.18;;
36745;SDS011;22715;52.182;21.206;2023-12-20T07:52:48;5.15;;;4.57;;
36745;SDS011;22715;52.182;21.206;2023-12-20T07:55:13;8.40;;;4.88;;
36745;SDS011;22715;52.182;21.206;2023-12-20T07:57:39;5.65;;;4.65;;
36745;SDS011;22715;52.182;21.206;2023-12-20T08:00:05;5.38;;;4.80;;
36745;SDS011;22715;52.182;21.206;2023-12-20T08:02:30;5.85;;;5.03;;
36745;SDS011;22715;52.182;21.206;2023-12-20T08:04:55;6.47;;;5.45;;
36745;SDS011;22715;52.182;21.206;2023-12-20T08:07:21;7.20;;;4.68;;
36745;SDS011;22715;52.182;21.206;2023-12-20T08:09:49;6.90;;;5.47;;
36745;SDS011;22715;52.182;21.206;2023-12-20T08:12:16;5.38;;;4.65;;
36745;SDS011;22715;52.182;21.206;2023-12-20T08:14:42;5.57;;;4.60;;
36745;SDS011;22715;52.182;21.206;2023-12-20T08:17:07;6.90;;;5.15;;
36745;SDS011;22715;52.182;21.206;2023-12-20T08:19:32;6.97;;;4.38;;
36745;SDS011;22715;52.182;21.206;2023-12-20T08:21:57;7.60;;;5.38;;
36745;SDS011;22715;52.182;21.206;2023-12-20T08:24:23;4.70;;;4.25;;
36745;SDS011;22715;52.182;21.206;2023-12-20T08:26:48;5.55;;;4.00;;
36745;SDS011;22715;52.182;21.206;2023-12-20T08:29:13;5.40;;;4.00;;
36745;SDS011;22715;52.182;21.206;2023-12-20T08:31:39;4.63;;;4.10;;
36745;SDS011;22715;52.182;21.206;2023-12-20T08:34:04;4.85;;;3.90;;
36745;SDS011;22715;52.182;21.206;2023-12-20T08:36:29;5.53;;;4.10;;
36745;SDS011;22715;52.182;21.206;2023-12-20T08:38:55;5.20;;;4.00;;
36745;SDS011;22715;52.182;21.206;2023-12-20T08:41:20;5.97;;;4.40;;
36745;SDS011;22715;52.182;21.206;2023-12-20T08:43:45;4.95;;;4.18;;
36745;SDS011;22715;52.182;21.206;2023-12-20T08:46:11;4.28;;;3.17;;
36745;SDS011;22715;52.182;21.206;2023-12-20T08:48:37;5.75;;;3.45;;
36745;SDS011;22715;52.182;21.206;2023-12-20T08:51:02;5.25;;;3.80;;
36745;SDS011;22715;52.182;21.206;2023-12-20T08:53:28;3.80;;;3.30;;
36745;SDS011;22715;52.182;21.206;2023-12-20T08:55:53;4.95;;;4.22;;
36745;SDS011;22715;52.182;21.206;2023-12-20T08:58:18;5.43;;;4.07;;
36745;SDS011;22715;52.182;21.206;2023-12-20T09:00:44;8.10;;;4.75;;
36745;SDS011;22715;52.182;21.206;2023-12-20T09:03:10;5.97;;;4.47;;
36745;SDS011;22715;52.182;21.206;2023-12-20T09:05:35;6.10;;;3.78;;
36745;SDS011;22715;52.182;21.206;2023-12-20T09:08:00;9.13;;;3.75;;
36745;SDS011;22715;52.182;21.206;2023-12-20T09:10:25;5.15;;;3.72;;
36745;SDS011;22715;52.182;21.206;2023-12-20T09:12:51;7.07;;;5.70;;
36745;SDS011;22715;52.182;21.206;2023-12-20T09:15:16;7.25;;;5.30;;
36745;SDS011;22715;52.182;21.206;2023-12-20T09:17:42;5.15;;;3.97;;
36745;SDS011;22715;52.182;21.206;2023-12-20T09:20:08;7.97;;;5.22;;
36745;SDS011;22715;52.182;21.206;2023-12-20T09:22:34;7.93;;;6.18;;
36745;SDS011;22715;52.182;21.206;2023-12-20T09:24:59;6.13;;;4.55;;
36745;SDS011;22715;52.182;21.206;2023-12-20T09:27:25;9.77;;;4.57;;
36745;SDS011;22715;52.182;21.206;2023-12-20T09:29:50;5.45;;;3.97;;
36745;SDS011;22715;52.182;21.206;2023-12-20T09:32:15;5.03;;;3.75;;
36745;SDS011;22715;52.182;21.206;2023-12-20T09:34:41;5.15;;;3.88;;
36745;SDS011;22715;52.182;21.206;2023-12-20T09:37:06;8.82;;;5.22;;
36745;SDS011;22715;52.182;21.206;2023-12-20T09:39:32;6.82;;;4.60;;
36745;SDS011;22715;52.182;21.206;2023-12-20T09:42:02;4.80;;;3.80;;
36745;SDS011;22715;52.182;21.206;2023-12-20T09:44:27;4.72;;;4.00;;
36745;SDS011;22715;52.182;21.206;2023-12-20T09:46:54;5.20;;;3.70;;
36745;SDS011;22715;52.182;21.206;2023-12-20T09:49:19;6.57;;;4.88;;
36745;SDS011;22715;52.182;21.206;2023-12-20T09:51:46;7.85;;;4.13;;
36745;SDS011;22715;52.182;21.206;2023-12-20T09:54:15;9.60;;;5.10;;
36745;SDS011;22715;52.182;21.206;2023-12-20T09:56:40;7.10;;;5.65;;
36745;SDS011;22715;52.182;21.206;2023-12-20T09:59:06;4.57;;;3.63;;
36745;SDS011;22715;52.182;21.206;2023-12-20T10:01:31;5.65;;;4.30;;
36745;SDS011;22715;52.182;21.206;2023-12-20T10:03:56;5.90;;;3.88;;
36745;SDS011;22715;52.182;21.206;2023-12-20T10:06:23;5.63;;;4.18;;
36745;SDS011;22715;52.182;21.206;2023-12-20T10:08:49;4.65;;;4.13;;
36745;SDS011;22715;52.182;21.206;2023-12-20T10:11:14;5.55;;;3.55;;
36745;SDS011;22715;52.182;21.206;2023-12-20T10:13:40;8.18;;;4.10;;
36745;SDS011;22715;52.182;21.206;2023-12-20T10:16:06;4.75;;;3.58;;
36745;SDS011;22715;52.182;21.206;2023-12-20T10:18:32;7.03;;;3.92;;
36745;SDS011;22715;52.182;21.206;2023-12-20T10:20:57;4.35;;;3.78;;
36745;SDS011;22715;52.182;21.206;2023-12-20T10:23:23;5.13;;;3.95;;
36745;SDS011;22715;52.182;21.206;2023-12-20T10:25:58;4.40;;;3.55;;
36745;SDS011;22715;52.182;21.206;2023-12-20T10:28:23;7.40;;;4.10;;
36745;SDS011;22715;52.182;21.206;2023-12-20T10:30:53;7.35;;;4.65;;
36745;SDS011;22715;52.182;21.206;2023-12-20T10:33:24;3.78;;;3.05;;
36745;SDS011;22715;52.182;21.206;2023-12-20T10:35:50;7.22;;;4.53;;
36745;SDS011;22715;52.182;21.206;2023-12-20T10:38:17;5.40;;;4.30;;
36745;SDS011;22715;52.182;21.206;2023-12-20T10:40:42;7.53;;;3.78;;
36745;SDS011;22715;52.182;21.206;2023-12-20T10:43:08;7.63;;;4.00;;
36745;SDS011;22715;52.182;21.206;2023-12-20T10:45:33;6.50;;;4.20;;
36745;SDS011;22715;52.182;21.206;2023-12-20T10:47:59;4.07;;;2.95;;
36745;SDS011;22715;52.182;21.206;2023-12-20T10:50:25;6.80;;;3.70;;
36745;SDS011;22715;52.182;21.206;2023-12-20T10:52:51;5.05;;;4.55;;
36745;SDS011;22715;52.182;21.206;2023-12-20T10:55:20;7.30;;;3.90;;
36745;SDS011;22715;52.182;21.206;2023-12-20T10:57:46;5.90;;;3.95;;
36745;SDS011;22715;52.182;21.206;2023-12-20T11:00:15;4.20;;;3.60;;
36745;SDS011;22715;52.182;21.206;2023-12-20T11:02:42;5.78;;;3.30;;
36745;SDS011;22715;52.182;21.206;2023-12-20T11:07:49;7.28;;;4.03;;
36745;SDS011;22715;52.182;21.206;2023-12-20T11:10:20;6.60;;;3.92;;
36745;SDS011;22715;52.182;21.206;2023-12-20T11:15:21;4.40;;;3.40;;
36745;SDS011;22715;52.182;21.206;2023-12-20T11:17:47;6.03;;;3.78;;
36745;SDS011;22715;52.182;21.206;2023-12-20T11:20:21;5.55;;;3.75;;
36745;SDS011;22715;52.182;21.206;2023-12-20T11:22:54;5.43;;;3.90;;
36745;SDS011;22715;52.182;21.206;2023-12-20T11:25:20;4.13;;;3.60;;
36745;SDS011;22715;52.182;21.206;2023-12-20T11:27:46;6.53;;;3.22;;
36745;SDS011;22715;52.182;21.206;2023-12-20T11:30:40;6.25;;;3.85;;
36745;SDS011;22715;52.182;21.206;2023-12-20T11:33:05;5.35;;;3.30;;
36745;SDS011;22715;52.182;21.206;2023-12-20T11:35:32;5.97;;;4.25;;
36745;SDS011;22715;52.182;21.206;2023-12-20T11:37:57;5.93;;;3.42;;
36745;SDS011;22715;52.182;21.206;2023-12-20T11:40:23;6.65;;;4.05;;
36745;SDS011;22715;52.182;21.206;2023-12-20T11:42:48;4.60;;;3.53;;
36745;SDS011;22715;52.182;21.206;2023-12-20T11:45:15;6.47;;;3.72;;
36745;SDS011;22715;52.182;21.206;2023-12-20T11:47:46;4.60;;;3.63;;
36745;SDS011;22715;52.182;21.206;2023-12-20T11:50:12;6.45;;;4.30;;
36745;SDS011;22715;52.182;21.206;2023-12-20T11:52:37;4.13;;;3.08;;
36745;SDS011;22715;52.182;21.206;2023-12-20T11:55:03;6.65;;;3.55;;
36745;SDS011;22715;52.182;21.206;2023-12-20T11:57:29;7.88;;;3.20;;
36745;SDS011;22715;52.182;21.206;2023-12-20T11:59:57;5.05;;;3.03;;
36745;SDS011;22715;52.182;21.206;2023-12-20T12:02:29;5.22;;;3.42;;
36745;SDS011;22715;52.182;21.206;2023-12-20T12:04:54;4.57;;;3.25;;
36745;SDS011;22715;52.182;21.206;2023-12-20T12:07:21;4.57;;;3.72;;
36745;SDS011;22715;52.182;21.206;2023-12-20T12:09:47;4.47;;;3.00;;
36745;SDS011;22715;52.182;21.206;2023-12-20T12:12:13;3.30;;;2.60;;
36745;SDS011;22715;52.182;21.206;2023-12-20T12:14:39;5.90;;;2.90;;
36745;SDS011;22715;52.182;21.206;2023-12-20T12:17:09;4.93;;;3.10;;
36745;SDS011;22715;52.182;21.206;2023-12-20T12:19:41;2.53;;;2.17;;
36745;SDS011;22715;52.182;21.206;2023-12-20T12:22:10;5.30;;;3.42;;
36745;SDS011;22715;52.182;21.206;2023-12-20T12:24:41;5.10;;;2.97;;
36745;SDS011;22715;52.182;21.206;2023-12-20T12:27:07;5.97;;;3.53;;
36745;SDS011;22715;52.182;21.206;2023-12-20T12:29:32;4.85;;;3.63;;
36745;SDS011;22715;52.182;21.206;2023-12-20T12:31:58;5.03;;;4.00;;
36745;SDS011;22715;52.182;21.206;2023-12-20T12:34:23;3.33;;;3.00;;
36745;SDS011;22715;52.182;21.206;2023-12-20T12:36:48;4.03;;;3.60;;
36745;SDS011;22715;52.182;21.206;2023-12-20T12:39:14;5.85;;;3.47;;
36745;SDS011;22715;52.182;21.206;2023-12-20T12:41:42;4.38;;;3.13;;
36745;SDS011;22715;52.182;21.206;2023-12-20T12:44:08;4.05;;;3.45;;
36745;SDS011;22715;52.182;21.206;2023-12-20T12:46:33;5.05;;;3.42;;
36745;SDS011;22715;52.182;21.206;2023-12-20T12:48:59;5.07;;;4.15;;
36745;SDS011;22715;52.182;21.206;2023-12-20T12:51:25;4.65;;;3.67;;
36745;SDS011;22715;52.182;21.206;2023-12-20T12:53:50;4.18;;;2.95;;
36745;SDS011;22715;52.182;21.206;2023-12-20T12:56:15;3.78;;;3.05;;
36745;SDS011;22715;52.182;21.206;2023-12-20T12:58:41;5.72;;;3.33;;
36745;SDS011;22715;52.182;21.206;2023-12-20T13:01:06;3.35;;;2.92;;
36745;SDS011;22715;52.182;21.206;2023-12-20T13:03:31;5.93;;;3.17;;
36745;SDS011;22715;52.182;21.206;2023-12-20T13:05:56;5.80;;;3.78;;
36745;SDS011;22715;52.182;21.206;2023-12-20T13:08:22;6.68;;;4.82;;
36745;SDS011;22715;52.182;21.206;2023-12-20T13:10:47;6.22;;;4.20;;
36745;SDS011;22715;52.182;21.206;2023-12-20T13:13:14;6.18;;;4.65;;
36745;SDS011;22715;52.182;21.206;2023-12-20T13:15:39;6.97;;;4.88;;
36745;SDS011;22715;52.182;21.206;2023-12-20T13:18:05;5.30;;;4.15;;
36745;SDS011;22715;52.182;21.206;2023-12-20T13:20:31;5.53;;;3.95;;
36745;SDS011;22715;52.182;21.206;2023-12-20T13:22:58;5.05;;;4.25;;
36745;SDS011;22715;52.182;21.206;2023-12-20T13:25:23;7.72;;;5.60;;
36745;SDS011;22715;52.182;21.206;2023-12-20T13:27:48;7.88;;;5.32;;
36745;SDS011;22715;52.182;21.206;2023-12-20T13:30:15;6.57;;;5.18;;
36745;SDS011;22715;52.182;21.206;2023-12-20T13:32:40;8.80;;;5.55;;
36745;SDS011;22715;52.182;21.206;2023-12-20T13:35:06;8.32;;;4.85;;
36745;SDS011;22715;52.182;21.206;2023-12-20T13:37:31;8.07;;;6.47;;
36745;SDS011;22715;52.182;21.206;2023-12-20T13:39:56;8.45;;;5.95;;
36745;SDS011;22715;52.182;21.206;2023-12-20T13:42:24;7.47;;;5.38;;
36745;SDS011;22715;52.182;21.206;2023-12-20T13:44:52;10.10;;;6.32;;
36745;SDS011;22715;52.182;21.206;2023-12-20T13:47:17;9.15;;;5.65;;
36745;SDS011;22715;52.182;21.206;2023-12-20T13:49:44;6.25;;;5.15;;
36745;SDS011;22715;52.182;21.206;2023-12-20T13:52:10;7.63;;;5.05;;
36745;SDS011;22715;52.182;21.206;2023-12-20T13:54:36;8.30;;;5.22;;
36745;SDS011;22715;52.182;21.206;2023-12-20T13:57:02;9.13;;;5.93;;
36745;SDS011;22715;52.182;21.206;2023-12-20T13:59:28;7.32;;;5.70;;
36745;SDS011;22715;52.182;21.206;2023-12-20T14:01:56;5.80;;;5.10;;
36745;SDS011;22715;52.182;21.206;2023-12-20T14:04:28;6.63;;;4.70;;
36745;SDS011;22715;52.182;21.206;2023-12-20T14:06:53;9.20;;;5.88;;
36745;SDS011;22715;52.182;21.206;2023-12-20T14:09:19;7.53;;;5.18;;
36745;SDS011;22715;52.182;21.206;2023-12-20T14:11:44;9.50;;;5.40;;
36745;SDS011;22715;52.182;21.206;2023-12-20T14:14:09;5.93;;;4.95;;
36745;SDS011;22715;52.182;21.206;2023-12-20T14:16:35;5.55;;;4.28;;
36745;SDS011;22715;52.182;21.206;2023-12-20T14:19:00;7.47;;;5.30;;
36745;SDS011;22715;52.182;21.206;2023-12-20T14:21:28;7.32;;;4.53;;
36745;SDS011;22715;52.182;21.206;2023-12-20T14:23:53;6.70;;;4.85;;
36745;SDS011;22715;52.182;21.206;2023-12-20T14:26:18;8.85;;;4.90;;
36745;SDS011;22715;52.182;21.206;2023-12-20T14:28:44;8.02;;;5.90;;
36745;SDS011;22715;52.182;21.206;2023-12-20T14:31:09;6.72;;;4.90;;
36745;SDS011;22715;52.182;21.206;2023-12-20T14:33:35;6.95;;;5.18;;